Time;durP1;ratioP1;P1;durP2;ratioP2;P2;SDS_P1;SDS_P2;PMS_P1;PMS_P2;Temp;Humidity;BMP_temperature;BMP_pressure;BME280_temperature;BME280_humidity;BME280_pressure;Samples;Min_cycle;Max_cycle;Signal;HPM_P1;HPM_P2
2021/01/05 00:01:56;;;;;;;55.55;22.35;;;;;;;-1.37;97.35;100736.13;1692003;84;21231;-76
2021/01/05 00:04:33;;;;;;;88.37;33.90;;;;;;;-1.38;97.31;100733.08;1729876;78;21304;-61
2021/01/05 00:06:55;;;;;;;70.22;27.67;;;;;;;-1.37;97.33;100729.67;1760595;80;21622;-62
2021/01/05 00:09:25;;;;;;;62.25;24.18;;;;;;;-1.37;97.46;100729.67;1753020;80;21202;-61
2021/01/05 00:12:04;;;;;;;57.35;24.92;;;;;;;-1.38;97.40;100725.33;1829403;78;21381;-62
2021/01/05 00:14:47;;;;;;;60.47;25.80;;;;;;;-1.39;97.07;100724.89;1823627;76;23351;-62
2021/01/05 00:17:17;;;;;;;60.10;26.50;;;;;;;-1.52;97.06;100721.16;1784196;80;21202;-62
2021/01/05 00:19:45;;;;;;;59.42;25.32;;;;;;;-1.51;97.14;100725.50;1781415;77;21354;-77
2021/01/05 00:22:14;;;;;;;57.98;23.77;;;;;;;-1.47;97.20;100732.48;1766223;80;21175;-80
2021/01/05 00:24:41;;;;;;;55.00;24.35;;;;;;;-1.44;97.24;100732.55;1781148;80;21167;-80
2021/01/05 00:27:10;;;;;;;57.08;23.57;;;;;;;-1.45;97.30;100742.83;1785885;78;21155;-79
2021/01/05 00:29:38;;;;;;;44.80;20.72;;;;;;;-1.49;97.12;100737.61;1785815;80;21124;-79
2021/01/05 00:32:15;;;;;;;43.48;19.07;;;;;;;-1.54;96.95;100743.50;1785614;79;21290;-80
2021/01/05 00:34:44;;;;;;;48.23;21.17;;;;;;;-1.59;96.90;100729.19;1784980;79;21194;-61
2021/01/05 00:37:13;;;;;;;50.85;21.12;;;;;;;-1.60;96.94;100734.34;1736046;82;21215;-63
2021/01/05 00:39:41;;;;;;;44.60;20.60;;;;;;;-1.64;97.02;100730.80;1736457;82;21143;-62
2021/01/05 00:42:10;;;;;;;57.20;23.47;;;;;;;-1.63;97.06;100742.00;1721256;82;21653;-61
2021/01/05 00:44:38;;;;;;;46.63;21.12;;;;;;;-1.65;97.03;100738.55;1662868;86;21301;-62
2021/01/05 00:47:06;;;;;;;56.02;23.67;;;;;;;-1.65;97.16;100732.95;1695999;83;21241;-62
2021/01/05 00:49:45;;;;;;;40.85;16.30;;;;;;;-1.63;97.15;100736.45;1695719;83;21575;-62
2021/01/05 00:52:12;;;;;;;50.90;22.45;;;;;;;-1.66;97.11;100738.94;1773370;80;21200;-81
2021/01/05 00:54:41;;;;;;;42.85;18.37;;;;;;;-1.62;97.16;100734.73;1779797;80;22228;-81
2021/01/05 00:57:11;;;;;;;44.75;20.82;;;;;;;-1.63;97.15;100740.71;1754101;80;22292;-81
2021/01/05 00:59:40;;;;;;;52.10;23.57;;;;;;;-1.62;97.17;100739.47;1752023;81;21726;-77
2021/01/05 01:02:12;;;;;;;45.35;18.52;;;;;;;-1.59;97.09;100743.39;1752345;80;21645;-77
2021/01/05 01:04:46;;;;;;;40.85;17.67;;;;;;;-1.56;97.11;100744.78;1727634;81;21628;-80
2021/01/05 01:07:17;;;;;;;50.83;21.35;;;;;;;-1.56;97.14;100741.33;1685734;83;21236;-61
2021/01/05 01:09:45;;;;;;;46.58;20.70;;;;;;;-1.53;97.18;100748.70;1692143;84;21592;-62
2021/01/05 01:12:18;;;;;;;36.95;17.60;;;;;;;-1.51;97.04;100741.87;1678291;84;21623;-62
2021/01/05 01:14:48;;;;;;;41.37;17.52;;;;;;;-1.52;97.09;100744.02;1665147;84;21217;-62
2021/01/05 01:17:16;;;;;;;49.03;21.17;;;;;;;-1.50;97.10;100734.98;1663872;86;21247;-62
2021/01/05 01:19:44;;;;;;;48.13;21.30;;;;;;;-1.50;97.10;100734.98;1663774;86;21507;-61
2021/01/05 01:22:20;;;;;;;;;;;;;;;-1.49;97.09;100727.28;1749495;78;21786;-81
2021/01/05 01:24:48;;;;;;;53.13;27.65;;;;;;;-1.46;97.10;100720.44;1807150;78;20208;-79
2021/01/05 01:27:19;;;;;;;42.60;18.75;;;;;;;-1.45;97.12;100714.41;1754422;81;21091;-80
2021/01/05 01:29:48;;;;;;;39.83;19.77;;;;;;;-1.42;97.07;100711.92;1747733;82;21189;-79
2021/01/05 01:32:16;;;;;;;46.28;21.30;;;;;;;-1.42;96.90;100718.37;1758587;81;21538;-80
2021/01/05 01:34:44;;;;;;;39.55;18.70;;;;;;;-1.48;96.85;100712.22;1758982;81;21305;-79
2021/01/05 01:37:17;;;;;;;40.10;17.50;;;;;;;-1.48;96.85;100712.22;1764482;81;21119;-80
2021/01/05 01:39:46;;;;;;;41.28;19.77;;;;;;;-1.51;96.71;100703.12;1715925;82;21141;-80
2021/01/05 01:42:18;;;;;;;28.80;12.93;;;;;;;-1.52;96.78;100697.91;1746199;79;21106;-87
2021/01/05 01:44:47;;;;;;;37.10;14.80;;;;;;;-1.56;96.81;100704.74;1733323;78;75799;-70
2021/01/05 01:47:20;;;;;;;31.60;13.95;;;;;;;-1.60;96.95;100697.76;1776807;77;21438;-85
2021/01/05 01:53:06;;;;;;;34.78;16.62;;;;;;;-1.60;96.92;100702.92;1661305;84;21167;-79
2021/01/05 01:55:48;;;;;;;38.05;17.02;;;;;;;-1.63;96.87;100710.61;1663124;86;21670;-79
2021/01/05 01:58:44;;;;;;;29.65;13.03;;;;;;;-1.67;96.93;100711.37;1655159;85;21178;-79
2021/01/05 02:01:50;;;;;;;35.92;15.40;;;;;;;-1.64;96.88;100714.02;1681955;84;21405;-77
2021/01/05 02:04:26;;;;;;;40.73;16.15;;;;;;;-1.61;97.00;100714.11;1700117;84;21202;-74
2021/01/05 02:07:39;;;;;;;39.35;18.23;;;;;;;-1.62;97.19;100702.44;1739281;79;21134;-61
2021/01/05 02:10:30;;;;;;;39.63;16.97;;;;;;;-1.63;97.32;100704.55;1798734;79;21643;-62
2021/01/05 02:13:15;;;;;;;38.17;16.25;;;;;;;-1.61;97.41;100703.78;1798445;79;21179;-62
2021/01/05 02:16:14;;;;;;;35.63;15.60;;;;;;;-1.59;97.50;100711.53;1817949;78;22070;-62
2021/01/05 02:19:08;;;;;;;42.70;17.53;;;;;;;-1.53;97.54;100706.52;1887879;76;22751;-61
2021/01/05 02:21:51;;;;;;;39.00;17.45;;;;;;;-1.60;97.56;100700.34;1830491;77;21174;-78
2021/01/05 02:25:03;;;;;;;37.95;16.55;;;;;;;-1.57;97.52;100692.64;1685810;84;21462;-76
2021/01/05 02:27:35;;;;;;;38.33;16.35;;;;;;;-1.58;97.51;100702.54;1690543;84;21680;-76
2021/01/05 02:30:05;;;;;;;34.40;15.23;;;;;;;-1.59;97.44;100695.61;1678731;84;21267;-77
2021/01/05 02:32:50;;;;;;;41.65;17.52;;;;;;;-1.57;97.41;100692.64;1697124;84;21150;-76
2021/01/05 02:36:00;;;;;;;38.50;15.55;;;;;;;-1.57;97.48;100700.39;1668207;85;21234;-77
2021/01/05 02:39:32;;;;;;;40.25;16.93;;;;;;;-1.57;97.47;100690.06;1709094;82;21206;-61
2021/01/05 02:42:58;;;;;;;36.28;17.05;;;;;;;-1.53;97.42;100686.71;1691324;83;21673;-62
2021/01/05 02:46:06;;;;;;;30.37;13.88;;;;;;;-1.52;97.29;100682.02;1714124;83;21206;-62
2021/01/05 02:49:31;;;;;;;35.33;14.85;;;;;;;-1.53;97.23;100681.97;1713949;83;21210;-62
2021/01/05 02:52:40;;;;;;;38.60;15.35;;;;;;;-1.53;97.08;100669.06;1723577;78;21630;-75
2021/01/05 02:56:07;;;;;;;44.80;18.42;;;;;;;-1.55;97.16;100666.86;1814032;78;21261;-74
2021/01/05 02:59:29;;;;;;;34.20;15.35;;;;;;;-1.53;97.29;100667.34;1820670;78;21159;-75
2021/01/05 03:02:51;;;;;;;41.37;18.55;;;;;;;-1.52;97.26;100656.19;1820440;78;21583;-75
2021/01/05 03:05:48;;;;;;;35.73;15.63;;;;;;;-1.53;97.32;100658.30;1820507;78;21134;-75
2021/01/05 03:08:34;;;;;;;40.03;15.03;;;;;;;-1.53;97.25;100655.72;1731804;80;21201;-61
2021/01/05 03:11:26;;;;;;;30.85;13.70;;;;;;;-1.52;97.11;100646.25;1727024;83;21838;-68
2021/01/05 03:15:07;;;;;;;40.52;16.55;;;;;;;-1.55;97.01;100650.94;1726896;82;21150;-61
2021/01/05 03:18:18;;;;;;;37.35;16.32;;;;;;;-1.60;97.00;100639.64;1672433;81;21237;-61
2021/01/05 03:21:47;;;;;;;39.42;17.27;;;;;;;-1.56;97.01;100643.17;1669411;84;21134;-62
2021/01/05 03:24:33;;;;;;;35.30;16.17;;;;;;;-1.58;97.09;100636.67;1794887;79;21607;-79
2021/01/05 03:27:20;;;;;;;37.38;17.00;;;;;;;-1.55;97.17;100632.85;1771312;80;21211;-79
2021/01/05 03:30:12;;;;;;;40.00;18.42;;;;;;;-1.52;97.22;100632.04;1763913;80;21194;-77
2021/01/05 03:33:00;;;;;;;42.08;18.90;;;;;;;-1.48;97.29;100630.84;1787262;80;21617;-78
2021/01/05 03:35:46;;;;;;;40.67;16.73;;;;;;;-1.46;97.29;100624.84;1753998;81;21146;-79
2021/01/05 03:38:33;;;;;;;32.23;14.47;;;;;;;-1.44;97.10;100621.45;1763222;78;21170;-62
2021/01/05 03:41:19;;;;;;;32.85;13.38;;;;;;;-1.46;96.93;100617.96;1741673;82;22122;-61
2021/01/05 03:44:05;;;;;;;35.43;16.00;;;;;;;-1.46;96.90;100624.84;1717033;82;21230;-62
2021/01/05 03:46:51;;;;;;;36.20;16.20;;;;;;;-1.49;96.64;100632.98;1714183;83;21659;-63
2021/01/05 03:49:37;;;;;;;33.70;15.50;;;;;;;-1.50;96.68;100628.64;1710677;83;21160;-62
2021/01/05 03:52:24;;;;;;;39.48;17.85;;;;;;;-1.51;96.84;100617.88;1711176;82;21466;-62
2021/01/05 03:55:11;;;;;;;34.38;15.75;;;;;;;-1.51;96.89;100617.88;1711883;83;21201;-63
2021/01/05 03:57:57;;;;;;;47.27;18.12;;;;;;;-1.46;96.93;100628.72;1712080;83;21192;-61
2021/01/05 04:00:45;;;;;;;41.83;18.45;;;;;;;-1.46;97.01;100630.88;1712041;83;21645;-62
2021/01/05 04:03:12;;;;;;;40.75;18.42;;;;;;;-1.45;97.11;100633.03;1710503;83;21700;-62
2021/01/05 04:05:40;;;;;;;46.65;20.37;;;;;;;-1.43;97.08;100632.65;1710934;83;21566;-62
2021/01/05 04:08:10;;;;;;;42.30;19.90;;;;;;;-1.41;97.06;100624.08;1712046;83;21389;-62
2021/01/05 04:10:39;;;;;;;42.30;19.42;;;;;;;-1.40;97.13;100625.84;1695053;83;21699;-61
2021/01/05 04:13:07;;;;;;;41.75;19.25;;;;;;;-1.38;97.20;100631.02;1683551;83;21188;-62
2021/01/05 04:15:36;;;;;;;31.77;13.90;;;;;;;-1.37;97.17;100628.48;1697914;82;21605;-62
2021/01/05 04:18:05;;;;;;;36.85;16.42;;;;;;;-1.36;97.04;100621.59;1676028;83;21200;-62
2021/01/05 04:20:33;;;;;;;32.13;15.50;;;;;;;-1.37;96.93;100622.45;1652853;86;21677;-62
2021/01/05 04:23:01;;;;;;;35.38;16.30;;;;;;;-1.36;96.95;100619.00;1661634;86;22542;-61
2021/01/05 04:25:29;;;;;;;36.08;15.30;;;;;;;-1.39;96.86;100609.91;1661541;86;21150;-62
2021/01/05 04:28:01;;;;;;;36.33;15.75;;;;;;;-1.40;96.63;100605.57;1659366;86;21239;-62
2021/01/05 04:30:31;;;;;;;32.17;14.10;;;;;;;-1.40;96.63;100613.32;1659470;86;21139;-63
2021/01/05 04:33:07;;;;;;;37.50;16.85;;;;;;;-1.41;96.60;100621.93;1659559;86;22851;-63
2021/01/05 04:35:35;;;;;;;35.65;15.60;;;;;;;-1.48;96.47;100624.38;1659353;86;21194;-62
2021/01/05 04:38:04;;;;;;;39.63;18.05;;;;;;;-1.49;96.38;100621.36;1662625;86;21645;-62
2021/01/05 04:40:39;;;;;;;42.58;18.35;;;;;;;-1.50;96.42;100614.44;1687488;85;21644;-63
2021/01/05 04:43:27;;;;;;;49.40;19.48;;;;;;;-1.48;96.50;100605.44;1672183;85;21213;-61
2021/01/05 04:46:18;;;;;;;36.40;16.42;;;;;;;-1.45;96.56;100611.08;1688727;83;22452;-65
2021/01/05 04:49:11;;;;;;;46.55;18.35;;;;;;;-1.45;96.31;100607.20;1673814;85;21636;-62
2021/01/05 04:52:12;;;;;;;37.08;15.65;;;;;;;-1.51;96.44;100615.29;1688884;83;21229;-62
2021/01/05 04:54:52;;;;;;;41.88;18.60;;;;;;;-1.56;96.48;100613.47;1673526;85;21142;-62
2021/01/05 04:57:26;;;;;;;27.10;12.47;;;;;;;-1.59;96.66;100614.25;1688466;84;21158;-62
2021/01/05 05:00:25;;;;;;;46.77;19.95;;;;;;;-1.60;96.73;100618.98;1673745;85;22352;-63
2021/01/05 05:03:19;;;;;;;42.80;19.02;;;;;;;-1.59;96.85;100618.12;1683907;84;21640;-62
2021/01/05 05:06:17;;;;;;;29.92;14.30;;;;;;;-1.59;96.96;100612.96;1673227;84;21703;-62
2021/01/05 05:09:15;;;;;;;43.75;20.08;;;;;;;-1.57;97.08;100610.42;1688933;84;21161;-62
2021/01/05 05:11:55;;;;;;;43.58;18.82;;;;;;;-1.54;97.08;100604.91;1673489;85;21640;-62
2021/01/05 05:14:52;;;;;;;44.87;20.23;;;;;;;-1.44;97.07;100599.49;1843939;76;22650;-62
2021/01/05 05:17:57;;;;;;;40.63;16.87;;;;;;;-1.48;97.08;100601.56;1782651;80;21605;-61
2021/01/05 05:21:20;;;;;;;40.67;18.82;;;;;;;-1.43;97.10;100606.81;1783608;80;21298;-62
2021/01/05 05:24:04;;;;;;;45.05;17.82;;;;;;;-1.38;97.03;100609.05;1783646;80;21115;-62
2021/01/05 05:27:00;;;;;;;45.58;18.90;;;;;;;-1.41;96.95;100611.59;1783596;80;21182;-61
2021/01/05 05:29:48;;;;;;;46.68;19.90;;;;;;;-1.41;96.94;100611.16;1783213;80;21162;-61
2021/01/05 05:32:21;;;;;;;48.28;20.68;;;;;;;-1.40;96.92;100612.03;1753397;80;21622;-61
2021/01/05 05:35:07;;;;;;;46.95;21.70;;;;;;;-1.39;96.96;100615.08;1775947;80;21367;-62
2021/01/05 05:38:29;;;;;;;51.83;23.27;;;;;;;-1.40;97.00;100610.73;1741597;81;21185;-64
2021/01/05 05:41:18;;;;;;;45.35;21.45;;;;;;;-1.38;97.02;100606.08;1703894;84;21233;-62
2021/01/05 05:44:34;;;;;;;39.50;21.23;;;;;;;-1.30;97.07;100601.05;1821957;76;28762;-62
2021/01/05 05:47:17;;;;;;;66.00;28.63;;;;;;;-1.25;96.53;100599.41;1845750;76;22771;-63
2021/01/05 05:50:01;;;;;;;42.95;19.55;;;;;;;-1.32;96.19;100601.44;1812197;78;21425;-62
2021/01/05 05:52:45;;;;;;;37.55;18.10;;;;;;;-1.36;96.22;100589.29;1783908;80;21380;-63
2021/01/05 05:55:41;;;;;;;38.50;16.87;;;;;;;-1.35;96.26;100576.84;1831638;76;22436;-62
2021/01/05 05:58:15;;;;;;;39.80;18.60;;;;;;;-1.42;96.37;100590.49;1784059;80;21139;-63
2021/01/05 06:00:51;;;;;;;50.65;21.10;;;;;;;-1.45;96.63;100586.11;1754220;80;22178;-63
2021/01/05 06:03:21;;;;;;;42.08;18.65;;;;;;;-1.48;96.68;100592.09;1762261;77;73280;-85
2021/01/05 06:05:49;;;;;;;38.53;16.95;;;;;;;-1.49;96.76;100600.70;1775965;78;75704;-83
2021/01/05 06:08:18;;;;;;;43.35;18.42;;;;;;;-1.49;96.71;100594.66;1785945;80;20924;-85
2021/01/05 06:10:50;;;;;;;44.67;19.12;;;;;;;-1.52;96.81;100587.73;1763655;80;21107;-84
2021/01/05 06:13:18;;;;;;;41.80;18.77;;;;;;;-1.48;96.85;100593.81;1709352;81;21802;-87
2021/01/05 06:15:48;;;;;;;43.50;21.12;;;;;;;-1.42;96.93;100595.66;1770745;79;21094;-84
2021/01/05 06:18:17;;;;;;;46.53;19.98;;;;;;;-1.43;96.83;100595.19;1743376;79;21220;-62
2021/01/05 06:20:46;;;;;;;49.13;21.02;;;;;;;-1.46;96.79;100588.68;1795280;79;21133;-64
2021/01/05 06:23:14;;;;;;;47.78;21.77;;;;;;;-1.45;96.78;100581.37;1815311;78;21191;-61
2021/01/05 06:25:42;;;;;;;49.48;22.40;;;;;;;-1.43;96.82;100580.98;1816506;77;22277;-65
2021/01/05 06:28:10;;;;;;;42.60;20.12;;;;;;;-1.43;96.90;100582.27;1819304;78;21257;-65
2021/01/05 06:30:38;;;;;;;53.92;22.90;;;;;;;-1.41;96.94;100580.16;1820507;77;21177;-65
2021/01/05 06:33:06;;;;;;;37.05;17.77;;;;;;;-1.37;97.00;100575.52;1801296;78;21309;-77
2021/01/05 06:35:34;;;;;;;47.83;22.32;;;;;;;-1.33;96.93;100576.45;1726056;81;21200;-77
2021/01/05 06:38:01;;;;;;;49.63;20.65;;;;;;;-1.32;96.97;100578.18;1754977;81;21371;-78
2021/01/05 06:40:28;;;;;;;54.25;23.90;;;;;;;-1.33;97.00;100575.16;1753965;81;21266;-76
2021/01/05 06:42:56;;;;;;;51.15;23.35;;;;;;;-1.31;96.99;100566.59;1753763;80;21607;-77
2021/01/05 06:45:30;;;;;;;51.25;23.10;;;;;;;-1.33;96.88;100563.53;1753729;81;21742;-78
2021/01/05 06:47:58;;;;;;;42.15;20.10;;;;;;;-1.40;96.95;100573.28;1742692;81;22136;-77
2021/01/05 06:50:28;;;;;;;49.65;22.70;;;;;;;-1.40;96.98;100573.28;1738618;77;21213;-65
2021/01/05 06:52:56;;;;;;;47.07;21.37;;;;;;;-1.44;97.02;100577.96;1688158;83;21212;-66
2021/01/05 06:55:24;;;;;;;48.95;21.35;;;;;;;-1.45;97.02;100584.81;1674215;84;21476;-64
2021/01/05 06:57:52;;;;;;;51.37;21.80;;;;;;;-1.45;97.04;100585.24;1673434;84;21182;-65
2021/01/05 07:00:23;;;;;;;41.23;18.50;;;;;;;-1.45;97.16;100582.66;1663727;85;21562;-66
2021/01/05 07:02:51;;;;;;;50.45;19.35;;;;;;;-1.45;97.17;100577.49;1627581;85;21495;-63
2021/01/05 07:05:20;;;;;;;51.02;21.62;;;;;;;-1.46;97.21;100583.52;1629455;81;21238;-77
2021/01/05 07:07:48;;;;;;;51.85;23.38;;;;;;;-1.43;97.17;100586.14;1718351;81;21598;-77
2021/01/05 07:10:17;;;;;;;43.30;19.48;;;;;;;-1.39;97.18;100590.53;1735377;79;21182;-76
2021/01/05 07:12:46;;;;;;;48.40;21.42;;;;;;;-1.37;97.24;100586.27;1713416;82;21220;-75
2021/01/05 07:15:15;;;;;;;45.35;19.85;;;;;;;-1.35;97.22;100584.59;1748364;82;21332;-76
2021/01/05 07:17:44;;;;;;;48.53;22.33;;;;;;;-1.31;97.19;100585.11;1748627;80;21181;-76
2021/01/05 07:20:13;;;;;;;50.50;23.60;;;;;;;-1.28;97.19;100581.27;1749515;80;21213;-76
2021/01/05 07:22:41;;;;;;;46.13;21.48;;;;;;;-1.28;97.11;100574.81;1752246;80;21211;-76
2021/01/05 07:25:12;;;;;;;43.98;20.82;;;;;;;-1.29;97.05;100591.14;1736499;81;21647;-76
2021/01/05 07:27:39;;;;;;;41.00;16.23;;;;;;;-1.28;96.92;100589.03;1726145;78;22285;-65
2021/01/05 07:30:15;;;;;;;58.28;25.10;;;;;;;-1.30;96.63;100590.70;1718522;82;21198;-63
2021/01/05 07:32:43;;;;;;;46.63;20.72;;;;;;;-1.31;96.57;100595.44;1742877;81;21186;-63
2021/01/05 07:35:12;;;;;;;50.95;23.02;;;;;;;-1.30;96.61;100595.88;1737381;82;21186;-66
2021/01/05 07:37:43;;;;;;;45.05;20.88;;;;;;;-1.25;96.57;100590.80;1735207;82;21654;-63
2021/01/05 07:40:14;;;;;;;43.35;19.45;;;;;;;-1.24;96.44;100586.95;1737225;81;22286;-64
2021/01/05 07:42:42;;;;;;;55.50;26.77;;;;;;;-1.23;96.42;100591.27;1747893;79;21199;-75
2021/01/05 07:45:14;;;;;;;58.58;25.35;;;;;;;-1.23;96.58;100578.34;1733898;82;21182;-76
2021/01/05 07:47:42;;;;;;;69.60;29.05;;;;;;;-1.18;96.50;100579.30;1669382;84;21216;-74
2021/01/05 07:50:21;;;;;;;49.35;23.47;;;;;;;-1.13;96.54;100578.98;1728590;83;21239;-75
2021/01/05 07:52:58;;;;;;;61.07;25.33;;;;;;;-1.04;96.57;100582.55;1863630;76;23405;-76
2021/01/05 07:55:28;;;;;;;53.05;24.40;;;;;;;-1.13;96.34;100573.80;1849549;77;21167;-74
2021/01/05 07:57:56;;;;;;;40.95;20.08;;;;;;;-1.07;96.30;100579.06;1851115;77;21462;-76
2021/01/05 08:00:26;;;;;;;57.27;29.12;;;;;;;-1.06;96.25;100580.82;1814109;77;21687;-75
2021/01/05 08:02:55;;;;;;;43.80;22.93;;;;;;;-1.06;96.09;100584.70;1821411;77;21119;-76
2021/01/05 08:05:25;;;;;;;44.75;21.37;;;;;;;-1.08;96.01;100583.80;1828824;77;21159;-76
2021/01/05 08:07:53;;;;;;;50.73;24.45;;;;;;;-1.07;95.96;100588.11;1822851;77;21638;-75
2021/01/05 08:10:29;;;;;;;55.23;23.83;;;;;;;-1.06;95.89;100600.20;1818620;76;21235;-76
2021/01/05 08:12:57;;;;;;;59.85;25.45;;;;;;;-1.08;95.86;100590.69;1823531;78;21570;-77
2021/01/05 08:15:31;;;;;;;47.98;21.73;;;;;;;-1.06;95.90;100585.09;1842056;77;21175;-75
2021/01/05 08:18:01;;;;;;;51.70;23.83;;;;;;;-1.02;95.77;100588.62;1798297;76;21237;-65
2021/01/05 08:20:32;;;;;;;50.70;21.82;;;;;;;-1.01;95.75;100590.34;1735723;82;21664;-65
2021/01/05 08:23:01;;;;;;;61.33;27.35;;;;;;;-0.99;95.75;100588.66;1752202;81;21474;-64
2021/01/05 08:28:20;;;;;;;49.27;24.37;;;;;;;-0.92;95.54;100594.38;1808121;79;22640;-63
2021/01/05 08:30:51;;;;;;;45.35;20.45;;;;;;;-0.99;95.39;100583.48;1750929;80;21656;-66
2021/01/05 08:33:18;;;;;;;53.05;25.97;;;;;;;-1.01;95.36;100574.83;1731428;78;22231;-75
2021/01/05 08:35:47;;;;;;;50.43;23.50;;;;;;;-0.99;95.47;100565.39;1713764;81;21599;-74
2021/01/05 08:38:16;;;;;;;48.35;23.77;;;;;;;-1.01;95.35;100564.49;1706411;81;21175;-74
2021/01/05 08:40:44;;;;;;;45.98;20.72;;;;;;;-1.01;95.40;100567.08;1709052;83;21684;-75
2021/01/05 08:43:12;;;;;;;49.75;25.00;;;;;;;-1.01;95.24;100556.73;1708668;82;21171;-74
2021/01/05 08:45:40;;;;;;;53.35;24.18;;;;;;;-1.00;95.12;100553.33;1707131;82;21526;-76
2021/01/05 08:48:09;;;;;;;52.65;23.38;;;;;;;-1.02;95.07;100555.87;1715166;79;21670;-65
2021/01/05 08:50:38;;;;;;;49.40;23.25;;;;;;;-1.00;95.11;100541.69;1718480;82;21205;-65
2021/01/05 08:53:08;;;;;;;57.15;26.80;;;;;;;-0.98;95.19;100543.88;1710407;82;21670;-64
2021/01/05 08:55:40;;;;;;;56.20;25.77;;;;;;;-0.93;95.12;100542.23;1708084;81;21212;-64
2021/01/05 08:58:08;;;;;;;54.40;26.12;;;;;;;-0.90;95.04;100542.27;1693837;83;21394;-65
2021/01/05 09:00:36;;;;;;;55.58;26.27;;;;;;;-0.91;94.98;100536.67;1716178;83;21213;-64
2021/01/05 09:03:05;;;;;;;49.13;23.83;;;;;;;-0.91;94.98;100533.66;1696184;79;21180;-66
2021/01/05 09:05:36;;;;;;;60.08;26.95;;;;;;;-0.88;94.93;100527.66;1662645;84;21192;-65
2021/01/05 09:08:05;;;;;;;65.08;27.58;;;;;;;-0.86;94.75;100519.50;1665860;86;21181;-67
2021/01/05 09:10:34;;;;;;;54.23;25.35;;;;;;;-0.86;94.45;100507.87;1636212;86;21715;-66
2021/01/05 09:13:02;;;;;;;51.50;21.15;;;;;;;-0.88;94.25;100500.51;1663114;84;21247;-65
2021/01/05 09:15:30;;;;;;;51.75;24.98;;;;;;;-0.89;94.39;100509.98;1679114;84;21176;-65
2021/01/05 09:18:02;;;;;;;51.58;24.77;;;;;;;-0.91;94.19;100514.69;1665864;86;21219;-66
2021/01/05 09:20:28;;;;;;;53.58;24.80;;;;;;;-0.87;94.31;100506.14;1670217;84;21171;-65
2021/01/05 09:22:56;;;;;;;53.10;24.77;;;;;;;-0.85;94.28;100508.33;1664998;84;21413;-64
2021/01/05 09:25:25;;;;;;;52.40;20.25;;;;;;;-0.83;94.24;100513.08;1663621;86;21476;-66
2021/01/05 09:27:53;;;;;;;49.20;24.37;;;;;;;-0.81;94.18;100523.02;1632612;86;21694;-66
2021/01/05 09:30:22;;;;;;;49.58;24.63;;;;;;;-0.81;94.06;100511.39;1663747;85;21648;-66
2021/01/05 09:32:49;;;;;;;47.45;24.23;;;;;;;-0.77;94.12;100507.15;1665900;86;21208;-66
2021/01/05 09:35:17;;;;;;;46.48;20.72;;;;;;;-0.76;94.15;100516.23;1637298;86;21385;-65
2021/01/05 09:37:47;;;;;;;58.35;27.27;;;;;;;-0.76;93.98;100506.28;1666194;86;21187;-65
2021/01/05 09:40:16;;;;;;;44.43;21.33;;;;;;;-0.72;94.05;100513.25;1632855;86;21216;-67
2021/01/05 09:42:45;;;;;;;40.33;20.62;;;;;;;-0.72;93.59;100513.25;1608086;84;26640;-66
2021/01/05 09:45:15;;;;;;;54.10;23.52;;;;;;;-0.74;92.99;100509.34;1603512;89;21663;-66
2021/01/05 09:47:42;;;;;;;41.58;20.12;;;;;;;-0.78;93.11;100524.39;1599590;89;21235;-66
2021/01/05 09:50:11;;;;;;;44.75;20.55;;;;;;;-0.77;93.15;100520.94;1603395;89;21686;-67
2021/01/05 09:52:39;;;;;;;38.55;16.60;;;;;;;-0.76;93.10;100518.82;1597282;88;21238;-67
2021/01/05 09:55:09;;;;;;;41.48;19.27;;;;;;;-0.74;93.22;100515.80;1601678;87;21830;-67
2021/01/05 09:57:37;;;;;;;51.48;25.05;;;;;;;-0.75;93.30;100508.91;1607369;87;21255;-66
2021/01/05 10:00:08;;;;;;;48.05;24.32;;;;;;;-0.74;93.44;100502.88;1603734;88;21469;-67
2021/01/05 10:02:36;;;;;;;48.85;22.85;;;;;;;-0.70;93.52;100502.08;1598801;88;21260;-67
2021/01/05 10:05:07;;;;;;;47.95;23.27;;;;;;;-0.72;93.53;100490.84;1608325;89;21163;-67
2021/01/05 10:07:34;;;;;;;45.00;22.55;;;;;;;-0.70;93.60;100496.91;1610559;88;21633;-67
2021/01/05 10:10:04;;;;;;;48.95;22.13;;;;;;;-0.68;93.59;100486.16;1610406;89;21259;-65
2021/01/05 10:12:32;;;;;;;44.05;21.07;;;;;;;-0.66;93.62;100478.00;1610743;89;22155;-67
2021/01/05 10:15:00;;;;;;;46.23;22.13;;;;;;;-0.67;93.54;100465.93;1610531;87;21195;-67
2021/01/05 10:17:28;;;;;;;44.93;21.70;;;;;;;-0.69;93.62;100464.14;1610825;89;21190;-67
2021/01/05 10:19:56;;;;;;;47.98;22.00;;;;;;;-0.67;93.64;100453.00;1610625;89;21167;-68
2021/01/05 10:22:26;;;;;;;48.08;22.37;;;;;;;-0.65;93.72;100453.86;1610541;89;21266;-67
2021/01/05 10:24:53;;;;;;;57.17;25.77;;;;;;;-0.61;93.65;100448.75;1588259;89;22343;-68
2021/01/05 10:27:24;;;;;;;49.93;23.98;;;;;;;-0.60;93.68;100451.77;1608960;87;21257;-72
2021/01/05 10:29:54;;;;;;;44.00;21.90;;;;;;;-0.63;93.52;100442.25;1606764;89;21714;-72
2021/01/05 10:32:22;;;;;;;47.85;23.00;;;;;;;-0.65;93.48;100447.39;1610784;87;21199;-72
2021/01/05 10:34:50;;;;;;;47.93;23.12;;;;;;;-0.66;93.49;100441.79;1610894;87;21219;-72
2021/01/05 10:37:19;;;;;;;49.98;23.30;;;;;;;-0.64;93.69;100445.27;1627143;82;74484;-92
2021/01/05 10:40:32;;;;;;;49.35;22.13;;;;;;;-0.67;93.79;100444.34;1582005;89;21362;-90
2021/01/05 10:43:05;;;;;;;49.60;23.18;;;;;;;-0.67;93.91;100432.30;1606397;88;21201;-91
2021/01/05 10:45:34;;;;;;;53.50;24.65;;;;;;;-0.66;93.96;100426.70;1605453;86;21237;-91
2021/01/05 10:48:06;;;;;;;53.83;25.23;;;;;;;-0.66;94.05;100428.86;1601946;89;21217;-89
2021/01/05 10:50:39;;;;;;;51.73;24.95;;;;;;;-0.67;94.20;100440.06;1697017;83;74041;-71
2021/01/05 10:53:07;;;;;;;54.95;25.08;;;;;;;-0.66;94.29;100439.20;1698854;83;21170;-72
2021/01/05 10:55:35;;;;;;;55.48;25.88;;;;;;;-0.67;94.26;100427.13;1699162;84;21219;-72
2021/01/05 10:58:03;;;;;;;53.90;24.43;;;;;;;-0.69;94.48;100427.53;1699288;83;21879;-72
2021/01/05 11:00:32;;;;;;;63.65;26.45;;;;;;;-0.85;94.48;100401.02;1699396;84;21198;-70
2021/01/05 11:03:01;;;;;;;70.22;31.75;;;;;;;-0.67;94.59;100419.38;1675255;84;21451;-72
2021/01/05 11:05:29;;;;;;;65.12;29.35;;;;;;;-0.64;94.66;100417.25;1699085;84;21211;-74
2021/01/05 11:07:57;;;;;;;71.30;31.62;;;;;;;-0.62;94.59;100414.66;1691031;84;21179;-71
2021/01/05 11:10:24;;;;;;;74.80;32.23;;;;;;;-0.64;94.59;100411.64;1685649;83;21186;-72
2021/01/05 11:13:13;;;;;;;75.75;31.75;;;;;;;-0.64;94.67;100403.88;1698989;82;21187;-69
2021/01/05 11:15:41;;;;;;;71.65;32.17;;;;;;;-0.61;94.70;100400.89;1668819;83;21204;-70
2021/01/05 11:18:10;;;;;;;74.40;32.50;;;;;;;-0.62;94.81;100400.03;1681671;85;21198;-67
2021/01/05 11:20:41;;;;;;;78.67;33.25;;;;;;;-0.61;94.78;100390.55;1652189;86;21630;-66
2021/01/05 11:23:09;;;;;;;90.55;36.55;;;;;;;-0.63;94.98;100406.03;1670939;85;21662;-67
2021/01/05 11:25:38;;;;;;;87.47;40.92;;;;;;;-0.63;95.03;100412.50;1668740;83;21218;-72
2021/01/05 11:28:05;;;;;;;92.27;40.98;;;;;;;-0.63;94.94;100412.50;1664959;85;21227;-68
2021/01/05 11:30:33;;;;;;;95.85;41.33;;;;;;;-0.60;94.93;100397.44;1679091;85;22265;-68
2021/01/05 11:33:03;;;;;;;108.85;45.40;;;;;;;-0.58;94.98;100386.69;1660164;85;21226;-68
2021/01/05 11:35:31;;;;;;;99.13;41.02;;;;;;;-0.60;95.00;100373.73;1643206;85;21683;-66
2021/01/05 11:38:03;;;;;;;99.35;41.55;;;;;;;-0.56;94.99;100385.00;1647906;86;21197;-67
2021/01/05 11:40:31;;;;;;;78.85;34.85;;;;;;;-0.56;94.87;100385.00;1641088;82;21954;-63
2021/01/05 11:42:59;;;;;;;100.53;42.20;;;;;;;-0.54;94.84;100380.72;1633128;86;21230;-63
2021/01/05 11:45:27;;;;;;;95.05;40.15;;;;;;;-0.54;94.88;100383.30;1640295;86;21231;-64
2021/01/05 11:47:55;;;;;;;75.62;31.62;;;;;;;-0.54;94.87;100386.75;1656919;85;21820;-63
2021/01/05 11:50:23;;;;;;;79.80;35.95;;;;;;;-0.49;94.82;100390.69;1664510;85;21648;-64
2021/01/05 11:52:52;;;;;;;85.75;36.85;;;;;;;-0.50;94.58;100383.79;1646806;85;21272;-63
2021/01/05 11:55:22;;;;;;;80.45;36.23;;;;;;;-0.50;94.42;100381.20;1568290;80;21303;-77
2021/01/05 11:57:50;;;;;;;79.62;33.00;;;;;;;-0.49;94.37;100391.98;1528574;91;21251;-77